sensor_id;sensor_type;location;lat;lon;timestamp;temperature;humidity
7159;DHT22;63175;52.374;13.132;2023-04-06T00:00:13;4.00;99.90
7159;DHT22;63175;52.374;13.132;2023-04-06T00:02:41;4.00;99.90
7159;DHT22;63175;52.374;13.132;2023-04-06T00:05:09;4.00;99.90
7159;DHT22;63175;52.374;13.132;2023-04-06T00:07:36;3.90;99.90
7159;DHT22;63175;52.374;13.132;2023-04-06T00:10:04;3.90;99.90
7159;DHT22;63175;52.374;13.132;2023-04-06T00:12:31;3.80;99.90
7159;DHT22;63175;52.374;13.132;2023-04-06T00:14:58;3.80;99.90
7159;DHT22;63175;52.374;13.132;2023-04-06T00:17:27;3.70;99.90
7159;DHT22;63175;52.374;13.132;2023-04-06T00:19:54;3.70;99.90
7159;DHT22;63175;52.374;13.132;2023-04-06T00:22:22;3.80;99.90
7159;DHT22;63175;52.374;13.132;2023-04-06T00:24:49;3.60;99.90
7159;DHT22;63175;52.374;13.132;2023-04-06T00:27:16;3.70;99.90
7159;DHT22;63175;52.374;13.132;2023-04-06T00:29:44;3.60;99.90
7159;DHT22;63175;52.374;13.132;2023-04-06T00:32:11;3.60;99.90
7159;DHT22;63175;52.374;13.132;2023-04-06T00:34:38;3.60;99.90
7159;DHT22;63175;52.374;13.132;2023-04-06T00:37:05;3.60;99.90
7159;DHT22;63175;52.374;13.132;2023-04-06T00:39:34;3.50;99.90
7159;DHT22;63175;52.374;13.132;2023-04-06T00:42:07;3.30;99.90
7159;DHT22;63175;52.374;13.132;2023-04-06T00:44:37;3.40;99.90
7159;DHT22;63175;52.374;13.132;2023-04-06T00:47:04;3.30;99.90
7159;DHT22;63175;52.374;13.132;2023-04-06T00:49:32;3.30;99.90
7159;DHT22;63175;52.374;13.132;2023-04-06T00:51:59;3.30;99.90
7159;DHT22;63175;52.374;13.132;2023-04-06T00:54:26;3.30;99.90
7159;DHT22;63175;52.374;13.132;2023-04-06T00:56:55;3.30;99.90
7159;DHT22;63175;52.374;13.132;2023-04-06T00:59:23;3.20;99.90
7159;DHT22;63175;52.374;13.132;2023-04-06T01:01:50;3.20;99.90
7159;DHT22;63175;52.374;13.132;2023-04-06T01:04:17;3.20;99.90
7159;DHT22;63175;52.374;13.132;2023-04-06T01:06:44;3.20;99.90
7159;DHT22;63175;52.374;13.132;2023-04-06T01:09:11;3.20;99.90
7159;DHT22;63175;52.374;13.132;2023-04-06T01:11:38;3.10;99.90
7159;DHT22;63175;52.374;13.132;2023-04-06T01:14:06;3.10;99.90
7159;DHT22;63175;52.374;13.132;2023-04-06T01:16:34;3.00;99.90
7159;DHT22;63175;52.374;13.132;2023-04-06T01:19:01;2.90;99.90
7159;DHT22;63175;52.374;13.132;2023-04-06T01:21:28;2.90;99.90
7159;DHT22;63175;52.374;13.132;2023-04-06T01:23:57;2.80;99.90
7159;DHT22;63175;52.374;13.132;2023-04-06T01:26:24;2.80;99.90
7159;DHT22;63175;52.374;13.132;2023-04-06T01:28:51;2.70;99.90
7159;DHT22;63175;52.374;13.132;2023-04-06T01:31:18;2.60;99.90
7159;DHT22;63175;52.374;13.132;2023-04-06T01:33:45;2.60;99.90
7159;DHT22;63175;52.374;13.132;2023-04-06T01:36:12;2.60;99.90
7159;DHT22;63175;52.374;13.132;2023-04-06T01:38:40;2.60;99.90
7159;DHT22;63175;52.374;13.132;2023-04-06T01:41:08;2.60;99.90
7159;DHT22;63175;52.374;13.132;2023-04-06T01:43:36;2.60;99.90
7159;DHT22;63175;52.374;13.132;2023-04-06T01:46:03;2.60;99.90
7159;DHT22;63175;52.374;13.132;2023-04-06T01:48:31;2.60;99.90
7159;DHT22;63175;52.374;13.132;2023-04-06T01:50:58;2.50;99.90
7159;DHT22;63175;52.374;13.132;2023-04-06T01:53:25;2.50;99.90
7159;DHT22;63175;52.374;13.132;2023-04-06T01:55:52;2.40;99.90
7159;DHT22;63175;52.374;13.132;2023-04-06T01:58:21;2.40;99.90
7159;DHT22;63175;52.374;13.132;2023-04-06T02:00:47;2.30;99.90
7159;DHT22;63175;52.374;13.132;2023-04-06T02:03:14;2.30;99.90
7159;DHT22;63175;52.374;13.132;2023-04-06T02:05:41;2.30;99.90
7159;DHT22;63175;52.374;13.132;2023-04-06T02:08:08;2.30;99.90
7159;DHT22;63175;52.374;13.132;2023-04-06T02:10:35;2.20;99.90
7159;DHT22;63175;52.374;13.132;2023-04-06T02:13:02;2.20;99.90
7159;DHT22;63175;52.374;13.132;2023-04-06T02:15:30;2.20;99.90
7159;DHT22;63175;52.374;13.132;2023-04-06T02:17:58;2.20;99.90
7159;DHT22;63175;52.374;13.132;2023-04-06T02:20:25;2.20;99.90
7159;DHT22;63175;52.374;13.132;2023-04-06T02:22:52;2.20;99.90
7159;DHT22;63175;52.374;13.132;2023-04-06T02:25:19;2.20;99.90
7159;DHT22;63175;52.374;13.132;2023-04-06T02:27:46;2.30;99.90
7159;DHT22;63175;52.374;13.132;2023-04-06T02:30:13;2.30;99.90
7159;DHT22;63175;52.374;13.132;2023-04-06T02:32:42;2.30;99.90
7159;DHT22;63175;52.374;13.132;2023-04-06T02:35:09;2.20;99.90
7159;DHT22;63175;52.374;13.132;2023-04-06T02:37:35;2.20;99.90
7159;DHT22;63175;52.374;13.132;2023-04-06T02:40:03;2.10;99.90
7159;DHT22;63175;52.374;13.132;2023-04-06T02:42:31;2.10;99.90
7159;DHT22;63175;52.374;13.132;2023-04-06T02:44:58;2.00;99.90
7159;DHT22;63175;52.374;13.132;2023-04-06T02:47:26;2.00;99.90
7159;DHT22;63175;52.374;13.132;2023-04-06T02:49:54;2.00;99.90
7159;DHT22;63175;52.374;13.132;2023-04-06T02:52:21;1.90;99.90
7159;DHT22;63175;52.374;13.132;2023-04-06T02:54:48;1.90;99.90
7159;DHT22;63175;52.374;13.132;2023-04-06T02:57:16;1.90;99.90
7159;DHT22;63175;52.374;13.132;2023-04-06T02:59:43;1.80;99.90
7159;DHT22;63175;52.374;13.132;2023-04-06T03:02:10;1.80;99.90
7159;DHT22;63175;52.374;13.132;2023-04-06T03:04:37;1.80;99.90
7159;DHT22;63175;52.374;13.132;2023-04-06T03:07:05;2.30;99.90
7159;DHT22;63175;52.374;13.132;2023-04-06T03:09:32;1.80;99.90
7159;DHT22;63175;52.374;13.132;2023-04-06T03:11:59;1.80;99.90
7159;DHT22;63175;52.374;13.132;2023-04-06T03:14:28;1.70;99.90
7159;DHT22;63175;52.374;13.132;2023-04-06T03:16:55;1.80;99.90
7159;DHT22;63175;52.374;13.132;2023-04-06T03:19:22;1.70;99.90
7159;DHT22;63175;52.374;13.132;2023-04-06T03:21:49;1.70;99.90
7159;DHT22;63175;52.374;13.132;2023-04-06T03:24:17;1.70;99.90
7159;DHT22;63175;52.374;13.132;2023-04-06T03:26:45;1.70;99.90
7159;DHT22;63175;52.374;13.132;2023-04-06T03:29:12;1.70;99.90
7159;DHT22;63175;52.374;13.132;2023-04-06T03:31:39;1.60;99.90
7159;DHT22;63175;52.374;13.132;2023-04-06T03:34:06;1.60;99.90
7159;DHT22;63175;52.374;13.132;2023-04-06T03:36:34;1.60;99.90
7159;DHT22;63175;52.374;13.132;2023-04-06T03:39:01;1.60;99.90
7159;DHT22;63175;52.374;13.132;2023-04-06T03:41:29;1.50;99.90
7159;DHT22;63175;52.374;13.132;2023-04-06T03:43:56;1.50;99.90
7159;DHT22;63175;52.374;13.132;2023-04-06T03:46:23;1.10;99.90
7159;DHT22;63175;52.374;13.132;2023-04-06T03:48:50;0.70;99.90
7159;DHT22;63175;52.374;13.132;2023-04-06T03:51:17;1.40;99.90
7159;DHT22;63175;52.374;13.132;2023-04-06T03:53:44;1.40;99.90
7159;DHT22;63175;52.374;13.132;2023-04-06T03:56:11;1.30;99.90
7159;DHT22;63175;52.374;13.132;2023-04-06T03:58:39;1.30;99.90
7159;DHT22;63175;52.374;13.132;2023-04-06T04:01:06;1.30;99.90
7159;DHT22;63175;52.374;13.132;2023-04-06T04:03:33;1.30;99.90
7159;DHT22;63175;52.374;13.132;2023-04-06T04:06:00;1.20;99.90
7159;DHT22;63175;52.374;13.132;2023-04-06T04:08:27;1.20;99.90
7159;DHT22;63175;52.374;13.132;2023-04-06T04:10:54;1.10;99.90
7159;DHT22;63175;52.374;13.132;2023-04-06T04:13:21;1.20;99.90
7159;DHT22;63175;52.374;13.132;2023-04-06T04:15:50;1.10;99.90
7159;DHT22;63175;52.374;13.132;2023-04-06T04:18:17;1.20;99.90
7159;DHT22;63175;52.374;13.132;2023-04-06T04:20:44;1.20;99.90
7159;DHT22;63175;52.374;13.132;2023-04-06T04:23:11;1.10;99.90
7159;DHT22;63175;52.374;13.132;2023-04-06T04:25:38;1.00;99.90
7159;DHT22;63175;52.374;13.132;2023-04-06T04:28:05;1.00;99.90
7159;DHT22;63175;52.374;13.132;2023-04-06T04:30:31;1.00;99.90
7159;DHT22;63175;52.374;13.132;2023-04-06T04:33:00;1.00;99.90
7159;DHT22;63175;52.374;13.132;2023-04-06T04:35:27;0.90;99.90
7159;DHT22;63175;52.374;13.132;2023-04-06T04:37:54;1.00;99.90
7159;DHT22;63175;52.374;13.132;2023-04-06T04:40:21;1.00;99.90
7159;DHT22;63175;52.374;13.132;2023-04-06T04:42:49;0.90;99.90
7159;DHT22;63175;52.374;13.132;2023-04-06T04:45:16;0.90;99.90
7159;DHT22;63175;52.374;13.132;2023-04-06T04:47:43;0.90;99.90
7159;DHT22;63175;52.374;13.132;2023-04-06T04:50:11;0.90;99.90
7159;DHT22;63175;52.374;13.132;2023-04-06T04:52:38;0.90;99.90
7159;DHT22;63175;52.374;13.132;2023-04-06T04:55:06;0.90;99.90
7159;DHT22;63175;52.374;13.132;2023-04-06T04:57:33;0.80;99.90
7159;DHT22;63175;52.374;13.132;2023-04-06T05:00:00;0.90;99.90
7159;DHT22;63175;52.374;13.132;2023-04-06T05:02:27;0.90;99.90
7159;DHT22;63175;52.374;13.132;2023-04-06T05:04:54;0.90;99.90
7159;DHT22;63175;52.374;13.132;2023-04-06T05:07:22;0.80;99.90
7159;DHT22;63175;52.374;13.132;2023-04-06T05:09:49;0.80;99.90
7159;DHT22;63175;52.374;13.132;2023-04-06T05:12:17;0.90;99.90
7159;DHT22;63175;52.374;13.132;2023-04-06T05:14:44;0.90;99.90
7159;DHT22;63175;52.374;13.132;2023-04-06T05:17:11;0.90;99.90
7159;DHT22;63175;52.374;13.132;2023-04-06T05:19:38;0.90;99.90
7159;DHT22;63175;52.374;13.132;2023-04-06T05:22:05;0.90;99.90
7159;DHT22;63175;52.374;13.132;2023-04-06T05:24:33;1.00;99.90
7159;DHT22;63175;52.374;13.132;2023-04-06T05:27:01;1.00;99.90
7159;DHT22;63175;52.374;13.132;2023-04-06T05:29:28;1.10;99.90
7159;DHT22;63175;52.374;13.132;2023-04-06T05:31:55;1.10;99.90
7159;DHT22;63175;52.374;13.132;2023-04-06T05:34:22;1.10;99.90
7159;DHT22;63175;52.374;13.132;2023-04-06T05:39:17;1.20;99.90
7159;DHT22;63175;52.374;13.132;2023-04-06T05:41:45;1.30;99.90
7159;DHT22;63175;52.374;13.132;2023-04-06T05:44:12;1.30;99.90
7159;DHT22;63175;52.374;13.132;2023-04-06T05:46:39;1.40;99.90
7159;DHT22;63175;52.374;13.132;2023-04-06T05:49:06;1.50;99.90
7159;DHT22;63175;52.374;13.132;2023-04-06T05:51:33;1.50;99.90
7159;DHT22;63175;52.374;13.132;2023-04-06T05:54:00;1.60;99.90
7159;DHT22;63175;52.374;13.132;2023-04-06T05:56:27;1.70;99.90
7159;DHT22;63175;52.374;13.132;2023-04-06T05:58:57;1.90;99.90
7159;DHT22;63175;52.374;13.132;2023-04-06T06:01:24;2.00;99.90
7159;DHT22;63175;52.374;13.132;2023-04-06T06:03:51;2.10;99.90
7159;DHT22;63175;52.374;13.132;2023-04-06T06:06:18;2.30;99.90
7159;DHT22;63175;52.374;13.132;2023-04-06T06:08:45;2.40;99.90
7159;DHT22;63175;52.374;13.132;2023-04-06T06:11:12;2.50;99.90
7159;DHT22;63175;52.374;13.132;2023-04-06T06:13:39;2.60;99.90
7159;DHT22;63175;52.374;13.132;2023-04-06T06:16:08;2.90;99.90
7159;DHT22;63175;52.374;13.132;2023-04-06T06:18:34;3.10;99.90
7159;DHT22;63175;52.374;13.132;2023-04-06T06:21:02;3.40;99.90
7159;DHT22;63175;52.374;13.132;2023-04-06T06:23:29;3.60;99.90
7159;DHT22;63175;52.374;13.132;2023-04-06T06:25:56;3.90;99.90
7159;DHT22;63175;52.374;13.132;2023-04-06T06:28:24;4.10;99.90
7159;DHT22;63175;52.374;13.132;2023-04-06T06:30:51;4.40;99.90
7159;DHT22;63175;52.374;13.132;2023-04-06T06:33:20;4.60;99.90
7159;DHT22;63175;52.374;13.132;2023-04-06T06:35:47;4.80;99.90
7159;DHT22;63175;52.374;13.132;2023-04-06T06:38:14;5.00;99.90
7159;DHT22;63175;52.374;13.132;2023-04-06T06:40:41;5.10;99.90
7159;DHT22;63175;52.374;13.132;2023-04-06T06:43:08;5.20;99.90
7159;DHT22;63175;52.374;13.132;2023-04-06T06:45:35;5.30;99.90
7159;DHT22;63175;52.374;13.132;2023-04-06T06:48:02;5.90;99.90
7159;DHT22;63175;52.374;13.132;2023-04-06T06:50:30;5.50;99.90
7159;DHT22;63175;52.374;13.132;2023-04-06T06:52:57;5.70;99.90
7159;DHT22;63175;52.374;13.132;2023-04-06T06:55:24;5.90;99.90
7159;DHT22;63175;52.374;13.132;2023-04-06T06:57:52;6.10;99.90
7159;DHT22;63175;52.374;13.132;2023-04-06T07:00:19;6.30;99.90
7159;DHT22;63175;52.374;13.132;2023-04-06T07:02:47;6.50;99.90
7159;DHT22;63175;52.374;13.132;2023-04-06T07:05:14;6.70;99.90
7159;DHT22;63175;52.374;13.132;2023-04-06T07:07:43;6.90;99.90
7159;DHT22;63175;52.374;13.132;2023-04-06T07:10:10;7.00;99.90
7159;DHT22;63175;52.374;13.132;2023-04-06T07:12:37;7.20;99.90
7159;DHT22;63175;52.374;13.132;2023-04-06T07:15:05;7.30;99.90
7159;DHT22;63175;52.374;13.132;2023-04-06T07:17:32;7.40;99.90
7159;DHT22;63175;52.374;13.132;2023-04-06T07:19:59;7.50;99.90
7159;DHT22;63175;52.374;13.132;2023-04-06T07:22:26;7.50;99.90
7159;DHT22;63175;52.374;13.132;2023-04-06T07:24:55;7.50;99.90
7159;DHT22;63175;52.374;13.132;2023-04-06T07:27:21;7.60;99.90
7159;DHT22;63175;52.374;13.132;2023-04-06T07:29:48;7.70;99.90
7159;DHT22;63175;52.374;13.132;2023-04-06T07:32:15;7.80;99.90
7159;DHT22;63175;52.374;13.132;2023-04-06T07:34:42;8.00;99.90
7159;DHT22;63175;52.374;13.132;2023-04-06T07:37:10;8.20;99.90
7159;DHT22;63175;52.374;13.132;2023-04-06T07:39:37;8.40;99.90
7159;DHT22;63175;52.374;13.132;2023-04-06T07:42:06;8.70;99.90
7159;DHT22;63175;52.374;13.132;2023-04-06T07:44:33;9.00;99.90
7159;DHT22;63175;52.374;13.132;2023-04-06T07:47:00;9.20;99.90
7159;DHT22;63175;52.374;13.132;2023-04-06T07:49:27;9.40;99.90
7159;DHT22;63175;52.374;13.132;2023-04-06T07:51:54;9.50;99.90
7159;DHT22;63175;52.374;13.132;2023-04-06T07:54:21;9.90;99.40
7159;DHT22;63175;52.374;13.132;2023-04-06T07:56:48;9.80;98.30
7159;DHT22;63175;52.374;13.132;2023-04-06T07:59:16;9.90;98.10
7159;DHT22;63175;52.374;13.132;2023-04-06T08:01:43;10.00;97.30
7159;DHT22;63175;52.374;13.132;2023-04-06T08:04:10;10.20;97.00
7159;DHT22;63175;52.374;13.132;2023-04-06T08:06:37;10.40;95.70
7159;DHT22;63175;52.374;13.132;2023-04-06T08:09:04;10.40;94.30
7159;DHT22;63175;52.374;13.132;2023-04-06T08:11:31;10.60;94.50
7159;DHT22;63175;52.374;13.132;2023-04-06T08:13:58;10.70;94.40
7159;DHT22;63175;52.374;13.132;2023-04-06T08:16:26;10.90;93.60
7159;DHT22;63175;52.374;13.132;2023-04-06T08:18:53;11.00;91.40
7159;DHT22;63175;52.374;13.132;2023-04-06T08:21:20;11.10;91.20
7159;DHT22;63175;52.374;13.132;2023-04-06T08:23:47;11.30;91.00
7159;DHT22;63175;52.374;13.132;2023-04-06T08:26:14;11.50;90.30
7159;DHT22;63175;52.374;13.132;2023-04-06T08:28:41;11.60;89.10
7159;DHT22;63175;52.374;13.132;2023-04-06T08:31:08;11.70;87.90
7159;DHT22;63175;52.374;13.132;2023-04-06T08:33:37;11.80;86.90
7159;DHT22;63175;52.374;13.132;2023-04-06T08:36:09;11.90;87.40
7159;DHT22;63175;52.374;13.132;2023-04-06T08:38:36;12.10;87.30
7159;DHT22;63175;52.374;13.132;2023-04-06T08:41:09;12.20;86.20
7159;DHT22;63175;52.374;13.132;2023-04-06T08:43:42;12.90;87.00
7159;DHT22;63175;52.374;13.132;2023-04-06T08:46:11;12.40;84.30
7159;DHT22;63175;52.374;13.132;2023-04-06T08:48:40;12.40;83.60
7159;DHT22;63175;52.374;13.132;2023-04-06T08:51:08;12.40;84.20
7159;DHT22;63175;52.374;13.132;2023-04-06T08:53:35;12.60;83.00
7159;DHT22;63175;52.374;13.132;2023-04-06T08:56:03;12.60;81.20
7159;DHT22;63175;52.374;13.132;2023-04-06T08:58:34;12.60;80.70
7159;DHT22;63175;52.374;13.132;2023-04-06T09:01:02;12.60;80.90
7159;DHT22;63175;52.374;13.132;2023-04-06T09:03:31;12.80;80.60
7159;DHT22;63175;52.374;13.132;2023-04-06T09:06:03;13.00;79.60
7159;DHT22;63175;52.374;13.132;2023-04-06T09:08:30;13.20;77.50
7159;DHT22;63175;52.374;13.132;2023-04-06T09:10:57;12.70;74.70
7159;DHT22;63175;52.374;13.132;2023-04-06T09:13:24;13.40;75.40
7159;DHT22;63175;52.374;13.132;2023-04-06T09:15:59;13.40;74.70
7159;DHT22;63175;52.374;13.132;2023-04-06T09:18:29;13.30;74.70
7159;DHT22;63175;52.374;13.132;2023-04-06T09:20:58;13.20;74.70
7159;DHT22;63175;52.374;13.132;2023-04-06T09:23:26;13.40;74.90
7159;DHT22;63175;52.374;13.132;2023-04-06T09:26:05;13.70;74.40
7159;DHT22;63175;52.374;13.132;2023-04-06T09:28:42;14.00;72.80
7159;DHT22;63175;52.374;13.132;2023-04-06T09:31:09;14.10;71.10
7159;DHT22;63175;52.374;13.132;2023-04-06T09:33:37;14.10;54.40
7159;DHT22;63175;52.374;13.132;2023-04-06T09:36:06;14.20;49.90
7159;DHT22;63175;52.374;13.132;2023-04-06T09:38:37;14.30;50.00
7159;DHT22;63175;52.374;13.132;2023-04-06T09:41:04;14.30;49.30
7159;DHT22;63175;52.374;13.132;2023-04-06T09:43:31;14.30;49.40
7159;DHT22;63175;52.374;13.132;2023-04-06T09:46:00;14.20;47.50
7159;DHT22;63175;52.374;13.132;2023-04-06T09:48:31;14.10;48.10
7159;DHT22;63175;52.374;13.132;2023-04-06T09:51:00;14.10;48.10
7159;DHT22;63175;52.374;13.132;2023-04-06T09:53:28;14.10;47.10
7159;DHT22;63175;52.374;13.132;2023-04-06T09:56:02;14.00;47.30
7159;DHT22;63175;52.374;13.132;2023-04-06T09:58:34;14.10;47.00
7159;DHT22;63175;52.374;13.132;2023-04-06T10:01:06;14.10;47.00
7159;DHT22;63175;52.374;13.132;2023-04-06T10:03:43;14.10;46.40
7159;DHT22;63175;52.374;13.132;2023-04-06T10:06:13;14.10;46.40
7159;DHT22;63175;52.374;13.132;2023-04-06T10:08:43;14.00;46.80
7159;DHT22;63175;52.374;13.132;2023-04-06T10:11:13;14.00;47.00
7159;DHT22;63175;52.374;13.132;2023-04-06T10:13:41;13.80;47.70
7159;DHT22;63175;52.374;13.132;2023-04-06T10:16:09;13.60;47.10
7159;DHT22;63175;52.374;13.132;2023-04-06T10:18:39;13.20;48.00
7159;DHT22;63175;52.374;13.132;2023-04-06T10:21:11;13.20;48.90
7159;DHT22;63175;52.374;13.132;2023-04-06T10:23:43;13.30;49.70
7159;DHT22;63175;52.374;13.132;2023-04-06T10:26:14;13.50;49.00
7159;DHT22;63175;52.374;13.132;2023-04-06T10:28:43;13.60;48.90
7159;DHT22;63175;52.374;13.132;2023-04-06T10:31:11;13.90;48.80
7159;DHT22;63175;52.374;13.132;2023-04-06T10:33:38;14.30;49.40
7159;DHT22;63175;52.374;13.132;2023-04-06T10:36:10;14.40;49.00
7159;DHT22;63175;52.374;13.132;2023-04-06T10:38:38;14.70;49.10
7159;DHT22;63175;52.374;13.132;2023-04-06T10:41:06;14.80;48.10
7159;DHT22;63175;52.374;13.132;2023-04-06T10:43:36;14.80;47.90
7159;DHT22;63175;52.374;13.132;2023-04-06T10:46:04;14.90;48.00
7159;DHT22;63175;52.374;13.132;2023-04-06T10:48:39;14.90;47.50
7159;DHT22;63175;52.374;13.132;2023-04-06T10:51:10;15.00;47.40
7159;DHT22;63175;52.374;13.132;2023-04-06T10:53:38;15.10;47.30
7159;DHT22;63175;52.374;13.132;2023-04-06T10:56:09;15.20;47.20
7159;DHT22;63175;52.374;13.132;2023-04-06T10:58:44;15.30;47.50
7159;DHT22;63175;52.374;13.132;2023-04-06T11:01:12;15.50;48.50
7159;DHT22;63175;52.374;13.132;2023-04-06T11:03:46;15.70;47.70
7159;DHT22;63175;52.374;13.132;2023-04-06T11:06:18;15.60;47.20
7159;DHT22;63175;52.374;13.132;2023-04-06T11:08:46;15.60;47.80
7159;DHT22;63175;52.374;13.132;2023-04-06T11:11:15;15.40;48.10
7159;DHT22;63175;52.374;13.132;2023-04-06T11:13:49;15.20;48.00
7159;DHT22;63175;52.374;13.132;2023-04-06T11:16:18;14.80;48.20
7159;DHT22;63175;52.374;13.132;2023-04-06T11:18:53;14.50;49.10
7159;DHT22;63175;52.374;13.132;2023-04-06T11:21:34;14.40;50.10
7159;DHT22;63175;52.374;13.132;2023-04-06T11:24:09;14.40;50.20
7159;DHT22;63175;52.374;13.132;2023-04-06T11:26:38;14.80;50.60
7159;DHT22;63175;52.374;13.132;2023-04-06T11:29:06;17.00;62.10
7159;DHT22;63175;52.374;13.132;2023-04-06T11:31:41;19.90;49.30
7159;DHT22;63175;52.374;13.132;2023-04-06T11:34:12;21.30;53.20
7159;DHT22;63175;52.374;13.132;2023-04-06T11:36:43;23.60;57.40
7159;DHT22;63175;52.374;13.132;2023-04-06T11:39:11;24.70;56.20
7159;DHT22;63175;52.374;13.132;2023-04-06T11:41:38;24.80;55.40
7159;DHT22;63175;52.374;13.132;2023-04-06T11:44:07;24.20;55.60
7159;DHT22;63175;52.374;13.132;2023-04-06T11:46:33;23.80;28.40
7159;DHT22;63175;52.374;13.132;2023-04-06T11:49:01;24.70;27.60
7159;DHT22;63175;52.374;13.132;2023-04-06T11:51:29;23.70;27.20
7159;DHT22;63175;52.374;13.132;2023-04-06T11:53:56;22.30;27.80
7159;DHT22;63175;52.374;13.132;2023-04-06T11:56:27;21.10;29.10
7159;DHT22;63175;52.374;13.132;2023-04-06T11:58:57;22.00;29.70
7159;DHT22;63175;52.374;13.132;2023-04-06T12:01:26;25.10;33.20
7159;DHT22;63175;52.374;13.132;2023-04-06T12:03:53;28.50;28.40
7159;DHT22;63175;52.374;13.132;2023-04-06T12:06:20;31.00;31.10
7159;DHT22;63175;52.374;13.132;2023-04-06T12:08:47;33.00;23.70
7159;DHT22;63175;52.374;13.132;2023-04-06T12:11:14;34.20;21.80
7159;DHT22;63175;52.374;13.132;2023-04-06T12:13:41;33.40;21.60
7159;DHT22;63175;52.374;13.132;2023-04-06T12:16:08;31.80;21.80
7159;DHT22;63175;52.374;13.132;2023-04-06T12:18:36;30.20;22.90
7159;DHT22;63175;52.374;13.132;2023-04-06T12:21:04;28.90;23.10
7159;DHT22;63175;52.374;13.132;2023-04-06T12:23:32;27.90;24.40
7159;DHT22;63175;52.374;13.132;2023-04-06T12:25:59;27.10;24.50
7159;DHT22;63175;52.374;13.132;2023-04-06T12:28:27;26.30;24.30
7159;DHT22;63175;52.374;13.132;2023-04-06T12:30:55;25.20;24.80
7159;DHT22;63175;52.374;13.132;2023-04-06T12:33:22;24.50;25.70
7159;DHT22;63175;52.374;13.132;2023-04-06T12:35:50;23.80;25.60
7159;DHT22;63175;52.374;13.132;2023-04-06T12:38:17;23.10;25.50
7159;DHT22;63175;52.374;13.132;2023-04-06T12:40:44;22.20;27.40
7159;DHT22;63175;52.374;13.132;2023-04-06T12:43:11;21.40;27.30
7159;DHT22;63175;52.374;13.132;2023-04-06T12:45:39;20.60;27.70
7159;DHT22;63175;52.374;13.132;2023-04-06T12:48:06;20.00;28.00
7159;DHT22;63175;52.374;13.132;2023-04-06T12:50:33;19.60;28.20
7159;DHT22;63175;52.374;13.132;2023-04-06T12:53:01;19.50;28.90
7159;DHT22;63175;52.374;13.132;2023-04-06T12:55:30;19.50;29.20
7159;DHT22;63175;52.374;13.132;2023-04-06T12:57:59;19.50;29.00
7159;DHT22;63175;52.374;13.132;2023-04-06T13:00:27;19.50;29.20
7159;DHT22;63175;52.374;13.132;2023-04-06T13:02:53;19.50;29.00
7159;DHT22;63175;52.374;13.132;2023-04-06T13:05:20;19.40;29.00
7159;DHT22;63175;52.374;13.132;2023-04-06T13:07:48;19.20;28.30
7159;DHT22;63175;52.374;13.132;2023-04-06T13:10:16;18.70;28.60
7159;DHT22;63175;52.374;13.132;2023-04-06T13:12:43;18.50;28.80
7159;DHT22;63175;52.374;13.132;2023-04-06T13:15:10;18.20;28.80
7159;DHT22;63175;52.374;13.132;2023-04-06T13:17:37;17.50;29.00
7159;DHT22;63175;52.374;13.132;2023-04-06T13:20:06;17.00;29.60
7159;DHT22;63175;52.374;13.132;2023-04-06T13:22:33;16.80;30.00
7159;DHT22;63175;52.374;13.132;2023-04-06T13:25:00;16.80;30.10
7159;DHT22;63175;52.374;13.132;2023-04-06T13:27:28;16.80;30.50
7159;DHT22;63175;52.374;13.132;2023-04-06T13:29:59;17.10;30.60
7159;DHT22;63175;52.374;13.132;2023-04-06T13:32:26;17.60;30.70
7159;DHT22;63175;52.374;13.132;2023-04-06T13:34:54;18.00;30.20
7159;DHT22;63175;52.374;13.132;2023-04-06T13:37:21;18.30;29.90
7159;DHT22;63175;52.374;13.132;2023-04-06T13:39:48;18.60;29.80
7159;DHT22;63175;52.374;13.132;2023-04-06T13:42:15;19.00;29.80
7159;DHT22;63175;52.374;13.132;2023-04-06T13:44:43;19.50;29.80
7159;DHT22;63175;52.374;13.132;2023-04-06T13:47:12;19.90;29.30
7159;DHT22;63175;52.374;13.132;2023-04-06T13:49:39;20.20;28.90
7159;DHT22;63175;52.374;13.132;2023-04-06T13:52:06;20.40;28.40
7159;DHT22;63175;52.374;13.132;2023-04-06T13:54:33;20.60;28.70
7159;DHT22;63175;52.374;13.132;2023-04-06T13:57:00;20.80;28.60
7159;DHT22;63175;52.374;13.132;2023-04-06T13:59:31;21.20;29.50
7159;DHT22;63175;52.374;13.132;2023-04-06T14:02:00;21.40;29.30
7159;DHT22;63175;52.374;13.132;2023-04-06T14:04:27;21.50;29.60
7159;DHT22;63175;52.374;13.132;2023-04-06T14:06:54;21.60;29.60
7159;DHT22;63175;52.374;13.132;2023-04-06T14:09:21;21.80;29.60
7159;DHT22;63175;52.374;13.132;2023-04-06T14:11:48;21.50;29.10
7159;DHT22;63175;52.374;13.132;2023-04-06T14:14:15;21.30;29.50
7159;DHT22;63175;52.374;13.132;2023-04-06T14:16:42;21.10;29.30
7159;DHT22;63175;52.374;13.132;2023-04-06T14:19:11;20.90;29.80
7159;DHT22;63175;52.374;13.132;2023-04-06T14:21:37;20.70;29.60
7159;DHT22;63175;52.374;13.132;2023-04-06T14:24:05;20.60;29.50
7159;DHT22;63175;52.374;13.132;2023-04-06T14:26:32;20.60;29.80
7159;DHT22;63175;52.374;13.132;2023-04-06T14:28:59;20.10;29.80
7159;DHT22;63175;52.374;13.132;2023-04-06T14:31:26;20.00;30.00
7159;DHT22;63175;52.374;13.132;2023-04-06T14:33:53;20.00;30.10
7159;DHT22;63175;52.374;13.132;2023-04-06T14:36:22;20.10;30.60
7159;DHT22;63175;52.374;13.132;2023-04-06T14:38:49;20.30;30.70
7159;DHT22;63175;52.374;13.132;2023-04-06T14:41:16;20.40;30.20
7159;DHT22;63175;52.374;13.132;2023-04-06T14:43:43;20.30;29.50
7159;DHT22;63175;52.374;13.132;2023-04-06T14:46:11;19.80;29.80
7159;DHT22;63175;52.374;13.132;2023-04-06T14:48:38;19.40;30.10
7159;DHT22;63175;52.374;13.132;2023-04-06T14:51:05;18.80;30.50
7159;DHT22;63175;52.374;13.132;2023-04-06T14:53:33;18.40;30.90
7159;DHT22;63175;52.374;13.132;2023-04-06T14:56:00;18.20;31.60
7159;DHT22;63175;52.374;13.132;2023-04-06T14:58:27;18.10;31.50
7159;DHT22;63175;52.374;13.132;2023-04-06T15:00:55;17.80;32.00
7159;DHT22;63175;52.374;13.132;2023-04-06T15:03:23;17.60;31.70
7159;DHT22;63175;52.374;13.132;2023-04-06T15:05:50;17.20;31.10
7159;DHT22;63175;52.374;13.132;2023-04-06T15:08:17;16.90;31.30
7159;DHT22;63175;52.374;13.132;2023-04-06T15:10:47;16.70;31.40
7159;DHT22;63175;52.374;13.132;2023-04-06T15:13:14;16.50;31.60
7159;DHT22;63175;52.374;13.132;2023-04-06T15:15:41;16.40;31.10
7159;DHT22;63175;52.374;13.132;2023-04-06T15:18:08;16.40;31.10
7159;DHT22;63175;52.374;13.132;2023-04-06T15:20:35;16.20;31.10
7159;DHT22;63175;52.374;13.132;2023-04-06T15:23:02;16.00;30.80
7159;DHT22;63175;52.374;13.132;2023-04-06T15:25:30;15.80;31.20
7159;DHT22;63175;52.374;13.132;2023-04-06T15:27:58;15.60;32.50
7159;DHT22;63175;52.374;13.132;2023-04-06T15:30:25;15.50;33.30
7159;DHT22;63175;52.374;13.132;2023-04-06T15:32:55;15.40;33.70
7159;DHT22;63175;52.374;13.132;2023-04-06T15:35:22;15.30;34.00
7159;DHT22;63175;52.374;13.132;2023-04-06T15:37:49;15.20;34.40
7159;DHT22;63175;52.374;13.132;2023-04-06T15:40:16;15.00;34.50
7159;DHT22;63175;52.374;13.132;2023-04-06T15:42:43;14.90;34.80